Alexandria, Missouri
Current Conditions -  °F | °C
As of 2:35 PM on Saturday 20 Dec 2014 (Local Time) from KEOK Reporting Station
Haze Haze  
Wind Chill: 32°   Ceiling: 400
Heat Index: 36°   Visibility: 1.5mi
Dew Point: 36°   Wind: 5mph
Humidity: 100%   Direction: 130°SE
Pressure: 30.17"   Gusts: NA
Location:  40.36°N, 91.46°W
Report Text: KEOK 202035Z AUTO 13004KT 1 1/2SM BR OVC004 02/02 A3017 RMK AO2
Loading
Personal Weather Stations






























Interactive Weather Map New forecast layout! Learn more

10-Day Weather Forecast

Advertisements
Track Severe Weather on mobile